createdAt,value
2017-07-22T00:00:06.344Z,936.2
2017-07-22T00:00:34.613Z,936.3
2017-07-22T00:01:02.807Z,936.26
2017-07-22T00:01:30.949Z,936.26
2017-07-22T00:01:59.208Z,936.26
2017-07-22T00:02:27.415Z,936.27
2017-07-22T00:02:55.659Z,936.22
2017-07-22T00:03:23.860Z,936.24
2017-07-22T00:03:51.954Z,936.25
2017-07-22T00:04:20.163Z,936.26
2017-07-22T00:04:48.331Z,936.24
2017-07-22T00:05:16.542Z,936.28
2017-07-22T00:05:44.748Z,936.28
2017-07-22T00:06:12.912Z,936.29
2017-07-22T00:06:40.958Z,936.26
2017-07-22T00:07:09.107Z,936.25
2017-07-22T00:07:37.294Z,936.25
2017-07-22T00:08:05.359Z,936.23
2017-07-22T00:08:33.586Z,936.26
2017-07-22T00:09:01.685Z,936.23
2017-07-22T00:09:29.822Z,936.25
2017-07-22T00:09:58.027Z,936.26
2017-07-22T00:10:26.347Z,936.25
2017-07-22T00:10:54.419Z,936.26
2017-07-22T00:11:22.512Z,936.24
2017-07-22T00:11:50.539Z,936.28
2017-07-22T00:12:18.747Z,936.3
2017-07-22T00:12:46.908Z,936.25
2017-07-22T00:13:15.096Z,936.27
2017-07-22T00:13:43.336Z,936.29
2017-07-22T00:14:11.470Z,936.33
2017-07-22T00:14:39.580Z,936.32
2017-07-22T00:15:07.747Z,936.31
2017-07-22T00:15:35.791Z,936.34
2017-07-22T00:16:03.990Z,936.34
2017-07-22T00:16:32.158Z,936.31
2017-07-22T00:17:00.408Z,936.34
2017-07-22T00:17:28.428Z,936.31
2017-07-22T00:17:56.548Z,936.34
2017-07-22T00:18:24.584Z,936.31
2017-07-22T00:18:52.797Z,936.33
2017-07-22T00:19:21.048Z,936.3
2017-07-22T00:19:49.283Z,936.34
2017-07-22T00:20:17.443Z,936.31
2017-07-22T00:20:45.559Z,936.28
2017-07-22T00:21:13.788Z,936.29
2017-07-22T00:21:41.927Z,936.3
2017-07-22T00:22:10.150Z,936.32
2017-07-22T00:22:38.339Z,936.32
2017-07-22T00:23:06.416Z,936.35
2017-07-22T00:23:34.612Z,936.35
2017-07-22T00:24:02.708Z,936.37
2017-07-22T00:24:30.836Z,936.4
2017-07-22T00:24:59.028Z,936.4
2017-07-22T00:25:27.274Z,936.4
2017-07-22T00:25:55.579Z,936.42
2017-07-22T00:26:23.807Z,936.4
2017-07-22T00:26:52.012Z,936.38
2017-07-22T00:27:20.110Z,936.39
2017-07-22T00:27:48.368Z,936.41
2017-07-22T00:28:16.613Z,936.35
2017-07-22T00:28:44.841Z,936.42
2017-07-22T00:29:12.946Z,936.43
2017-07-22T00:29:41.168Z,936.43
2017-07-22T00:30:09.363Z,936.45
2017-07-22T00:30:37.623Z,936.42
2017-07-22T00:31:05.743Z,936.46
2017-07-22T00:31:33.867Z,936.46
2017-07-22T00:32:02.079Z,936.44
2017-07-22T00:32:30.298Z,936.44
2017-07-22T00:32:58.427Z,936.43
2017-07-22T00:33:26.696Z,936.42
2017-07-22T00:33:54.880Z,936.42
2017-07-22T00:34:22.983Z,936.41
2017-07-22T00:34:51.200Z,936.41
2017-07-22T00:35:19.470Z,936.41
2017-07-22T00:35:47.738Z,936.38
2017-07-22T00:36:15.977Z,936.4
2017-07-22T00:36:44.144Z,936.41
2017-07-22T00:37:12.292Z,936.45
2017-07-22T00:37:40.572Z,936.42
2017-07-22T00:38:08.685Z,936.45
2017-07-22T00:38:36.895Z,936.44
2017-07-22T00:39:05.147Z,936.45
2017-07-22T00:39:33.158Z,936.43
2017-07-22T00:40:01.164Z,936.42
2017-07-22T00:40:29.371Z,936.4
2017-07-22T00:40:57.558Z,936.41
2017-07-22T00:41:25.669Z,936.44
2017-07-22T00:41:53.879Z,936.41
2017-07-22T00:42:22.123Z,936.42
2017-07-22T00:42:50.749Z,936.4
2017-07-22T00:43:18.929Z,936.43
2017-07-22T00:43:47.220Z,936.44
2017-07-22T00:44:15.633Z,936.47
2017-07-22T00:44:43.810Z,936.48
2017-07-22T00:45:11.811Z,936.47
2017-07-22T00:45:40.038Z,936.44
2017-07-22T00:46:08.194Z,936.43
2017-07-22T00:46:36.353Z,936.47
2017-07-22T00:47:04.534Z,936.45
2017-07-22T00:47:32.630Z,936.45
2017-07-22T00:48:00.669Z,936.47
2017-07-22T00:48:28.864Z,936.45
2017-07-22T00:48:57.161Z,936.48
2017-07-22T00:49:25.208Z,936.48
2017-07-22T00:49:53.518Z,936.47
2017-07-22T00:50:21.654Z,936.49
2017-07-22T00:50:49.693Z,936.5
2017-07-22T00:51:17.817Z,936.49
2017-07-22T00:51:46.051Z,936.48
2017-07-22T00:52:14.203Z,936.48
2017-07-22T00:52:42.101Z,936.5
2017-07-22T00:53:10.341Z,936.51
2017-07-22T00:53:38.598Z,936.48
2017-07-22T00:54:06.847Z,936.47
2017-07-22T00:54:34.972Z,936.48
2017-07-22T00:55:03.338Z,936.47
2017-07-22T00:55:31.619Z,936.48
2017-07-22T00:55:59.704Z,936.47
2017-07-22T00:56:27.750Z,936.47
2017-07-22T00:56:56.005Z,936.47
2017-07-22T00:57:24.104Z,936.5
2017-07-22T00:57:52.237Z,936.52
2017-07-22T00:58:20.370Z,936.48
2017-07-22T00:58:48.467Z,936.51
2017-07-22T00:59:16.478Z,936.5
2017-07-22T00:59:44.712Z,936.52
2017-07-22T01:00:12.893Z,936.46
2017-07-22T01:00:41.234Z,936.49
2017-07-22T01:01:09.465Z,936.5
2017-07-22T01:01:37.652Z,936.46
2017-07-22T01:02:05.811Z,936.46
2017-07-22T01:02:33.976Z,936.51
2017-07-22T01:03:02.085Z,936.49
2017-07-22T01:03:30.230Z,936.48
2017-07-22T01:03:58.438Z,936.46
2017-07-22T01:04:26.632Z,936.45
2017-07-22T01:04:54.837Z,936.49
2017-07-22T01:05:23.005Z,936.48
2017-07-22T01:05:51.223Z,936.48
2017-07-22T01:06:19.259Z,936.45
2017-07-22T01:06:47.366Z,936.47
2017-07-22T01:07:15.600Z,936.47
2017-07-22T01:07:43.742Z,936.47
2017-07-22T01:08:11.969Z,936.49
2017-07-22T01:08:40.204Z,936.49
2017-07-22T01:09:08.500Z,936.47
2017-07-22T01:09:36.721Z,936.46
2017-07-22T01:10:04.854Z,936.48
2017-07-22T01:10:33.039Z,936.46
2017-07-22T01:11:01.273Z,936.48
2017-07-22T01:11:29.282Z,936.49
2017-07-22T01:11:57.405Z,936.47
2017-07-22T01:12:25.639Z,936.51
2017-07-22T01:12:53.763Z,936.49
2017-07-22T01:13:21.781Z,936.52
2017-07-22T01:13:49.689Z,936.51
2017-07-22T01:14:17.742Z,936.53
2017-07-22T01:14:46.039Z,936.53
2017-07-22T01:15:14.196Z,936.52
2017-07-22T01:15:42.543Z,936.57
2017-07-22T01:16:10.577Z,936.54
2017-07-22T01:16:38.832Z,936.54
2017-07-22T01:17:06.976Z,936.55
2017-07-22T01:17:35.164Z,936.55
2017-07-22T01:18:03.400Z,936.51
2017-07-22T01:18:31.596Z,936.52
2017-07-22T01:18:59.777Z,936.56
2017-07-22T01:19:27.901Z,936.56
2017-07-22T01:19:56.064Z,936.54
2017-07-22T01:20:23.997Z,936.57
2017-07-22T01:20:52.195Z,936.56
2017-07-22T01:21:20.417Z,936.53
2017-07-22T01:21:48.579Z,936.53
2017-07-22T01:22:16.689Z,936.52
2017-07-22T01:22:44.919Z,936.57
2017-07-22T01:23:13.032Z,936.55
2017-07-22T01:23:41.126Z,936.52
2017-07-22T01:24:09.294Z,936.52
2017-07-22T01:24:37.553Z,936.52
2017-07-22T01:25:05.779Z,936.54
2017-07-22T01:25:33.949Z,936.5
2017-07-22T01:26:02.240Z,936.52
2017-07-22T01:26:30.343Z,936.5
2017-07-22T01:26:58.575Z,936.53
2017-07-22T01:27:26.703Z,936.5
2017-07-22T01:27:54.814Z,936.45
2017-07-22T01:28:23.013Z,936.51
2017-07-22T01:28:51.084Z,936.47
2017-07-22T01:29:19.324Z,936.47
2017-07-22T01:29:47.541Z,936.49
2017-07-22T01:30:15.738Z,936.5
2017-07-22T01:30:43.873Z,936.48
2017-07-22T01:31:12.072Z,936.5
2017-07-22T01:31:40.334Z,936.5
2017-07-22T01:32:08.511Z,936.48
2017-07-22T01:32:36.713Z,936.5
2017-07-22T01:33:04.813Z,936.52
2017-07-22T01:33:32.932Z,936.5
2017-07-22T01:34:01.009Z,936.54
2017-07-22T01:34:29.069Z,936.53
2017-07-22T01:34:57.310Z,936.5
2017-07-22T01:35:25.394Z,936.48
2017-07-22T01:35:53.638Z,936.51
2017-07-22T01:36:21.802Z,936.5
2017-07-22T01:36:49.962Z,936.48
2017-07-22T01:37:18.141Z,936.42
2017-07-22T01:37:46.391Z,936.46
2017-07-22T01:38:14.595Z,936.44
2017-07-22T01:38:42.798Z,936.47
2017-07-22T01:39:10.987Z,936.49
2017-07-22T01:39:39.137Z,936.45
2017-07-22T01:40:07.362Z,936.46
2017-07-22T01:40:35.611Z,936.47
2017-07-22T01:41:03.875Z,936.45
2017-07-22T01:41:31.989Z,936.41
2017-07-22T01:41:59.960Z,936.44
2017-07-22T01:42:28.163Z,936.39
2017-07-22T01:42:56.414Z,936.39
2017-07-22T01:43:24.678Z,936.36
2017-07-22T01:43:52.811Z,936.38
2017-07-22T01:44:20.993Z,936.43
2017-07-22T01:44:49.165Z,936.4
2017-07-22T01:45:17.429Z,936.41
2017-07-22T01:45:45.602Z,936.4
2017-07-22T01:46:13.946Z,936.39
2017-07-22T01:46:42.196Z,936.4
2017-07-22T01:47:10.491Z,936.38
2017-07-22T01:47:38.652Z,936.36
2017-07-22T01:48:06.884Z,936.39
2017-07-22T01:48:35.089Z,936.39
2017-07-22T01:49:03.314Z,936.37
2017-07-22T01:49:31.437Z,936.39
2017-07-22T01:49:59.683Z,936.4
2017-07-22T01:50:27.946Z,936.38
2017-07-22T01:50:56.178Z,936.39
2017-07-22T01:51:25.781Z,936.37
2017-07-22T01:51:54.015Z,936.42
2017-07-22T01:52:22.161Z,936.39
2017-07-22T01:52:50.480Z,936.41
2017-07-22T01:53:18.668Z,936.4
2017-07-22T01:53:46.876Z,936.41
2017-07-22T01:54:15.104Z,936.41
2017-07-22T01:54:43.101Z,936.42
2017-07-22T01:55:11.209Z,936.41
2017-07-22T01:55:39.393Z,936.4
2017-07-22T01:56:07.729Z,936.41
2017-07-22T01:56:35.854Z,936.43
2017-07-22T01:57:04.106Z,936.45
2017-07-22T01:57:32.355Z,936.44
2017-07-22T01:58:00.590Z,936.43
2017-07-22T01:58:28.807Z,936.44
2017-07-22T01:58:56.981Z,936.43
2017-07-22T01:59:24.967Z,936.4
2017-07-22T01:59:53.152Z,936.43
2017-07-22T02:00:21.388Z,936.42
2017-07-22T02:00:49.516Z,936.42
2017-07-22T02:01:17.686Z,936.45
2017-07-22T02:01:45.804Z,936.41
2017-07-22T02:02:13.951Z,936.4
2017-07-22T02:02:42.160Z,936.41
2017-07-22T02:03:10.365Z,936.42
2017-07-22T02:03:38.475Z,936.39
2017-07-22T02:04:06.628Z,936.39
2017-07-22T02:04:34.773Z,936.38
2017-07-22T02:05:02.863Z,936.36
2017-07-22T02:05:30.982Z,936.37
2017-07-22T02:05:58.965Z,936.4
2017-07-22T02:06:27.304Z,936.39
2017-07-22T02:06:55.518Z,936.36
2017-07-22T02:07:23.650Z,936.37
2017-07-22T02:07:51.770Z,936.4
2017-07-22T02:08:19.895Z,936.35
2017-07-22T02:08:48.066Z,936.39
2017-07-22T02:09:16.173Z,936.36
2017-07-22T02:09:44.353Z,936.35
2017-07-22T02:10:12.489Z,936.35
2017-07-22T02:10:40.696Z,936.37
2017-07-22T02:11:08.932Z,936.38
2017-07-22T02:11:37.109Z,936.35
2017-07-22T02:12:05.370Z,936.34
2017-07-22T02:12:33.583Z,936.35
2017-07-22T02:13:01.613Z,936.36
2017-07-22T02:13:29.736Z,936.35
2017-07-22T02:13:57.986Z,936.36
2017-07-22T02:14:26.204Z,936.34
2017-07-22T02:14:54.354Z,936.38
2017-07-22T02:15:22.574Z,936.37
2017-07-22T02:15:50.689Z,936.34
2017-07-22T02:16:18.867Z,936.37
2017-07-22T02:16:47.100Z,936.34
2017-07-22T02:17:15.312Z,936.34
2017-07-22T02:17:43.448Z,936.36
2017-07-22T02:18:11.653Z,936.37
2017-07-22T02:18:39.776Z,936.39
2017-07-22T02:19:08.031Z,936.37
2017-07-22T02:19:37.841Z,936.37
2017-07-22T02:20:05.965Z,936.39
2017-07-22T02:20:34.209Z,936.39
2017-07-22T02:21:02.805Z,936.39
2017-07-22T02:21:30.951Z,936.36
2017-07-22T02:21:59.128Z,936.36
2017-07-22T02:22:27.356Z,936.36
2017-07-22T02:22:55.619Z,936.39
2017-07-22T02:23:23.869Z,936.36
2017-07-22T02:23:52.134Z,936.4
2017-07-22T02:24:20.300Z,936.38
2017-07-22T02:24:48.401Z,936.38
2017-07-22T02:25:16.511Z,936.38
2017-07-22T02:25:44.546Z,936.38
2017-07-22T02:26:12.576Z,936.37
2017-07-22T02:26:40.770Z,936.38
2017-07-22T02:27:09.049Z,936.38
2017-07-22T02:27:37.133Z,936.36
2017-07-22T02:28:05.254Z,936.42
2017-07-22T02:28:33.500Z,936.41
2017-07-22T02:29:01.768Z,936.4
2017-07-22T02:29:29.793Z,936.4
2017-07-22T02:29:57.948Z,936.37
2017-07-22T02:30:26.134Z,936.4
2017-07-22T02:30:54.359Z,936.38
2017-07-22T02:31:22.410Z,936.38
2017-07-22T02:31:50.706Z,936.41
2017-07-22T02:32:18.962Z,936.39
2017-07-22T02:32:47.163Z,936.4
2017-07-22T02:33:15.428Z,936.37
2017-07-22T02:33:43.556Z,936.41
2017-07-22T02:34:11.694Z,936.4
2017-07-22T02:34:39.879Z,936.39
2017-07-22T02:35:08.045Z,936.38
2017-07-22T02:35:36.137Z,936.36
2017-07-22T02:36:04.388Z,936.37
2017-07-22T02:36:32.453Z,936.4
2017-07-22T02:37:00.642Z,936.39
2017-07-22T02:37:28.718Z,936.38
2017-07-22T02:37:56.945Z,936.39
2017-07-22T02:38:25.050Z,936.38
2017-07-22T02:38:53.234Z,936.41
2017-07-22T02:39:21.468Z,936.42
2017-07-22T02:39:50.462Z,936.37
2017-07-22T02:40:18.549Z,936.44
2017-07-22T02:40:46.646Z,936.39
2017-07-22T02:41:14.871Z,936.41
2017-07-22T02:41:43.730Z,936.41
2017-07-22T02:42:11.849Z,936.42
2017-07-22T02:42:39.953Z,936.41
2017-07-22T02:43:08.108Z,936.41
2017-07-22T02:43:36.344Z,936.41
2017-07-22T02:44:04.555Z,936.43
2017-07-22T02:44:32.699Z,936.42
2017-07-22T02:45:00.809Z,936.41
2017-07-22T02:45:28.983Z,936.42
2017-07-22T02:45:57.136Z,936.43
2017-07-22T02:46:25.193Z,936.43
2017-07-22T02:46:53.513Z,936.44
2017-07-22T02:47:21.772Z,936.42
2017-07-22T02:47:49.790Z,936.42
2017-07-22T02:48:18.005Z,936.41
2017-07-22T02:48:46.156Z,936.43
2017-07-22T02:49:14.289Z,936.41
2017-07-22T02:49:42.466Z,936.42
2017-07-22T02:50:10.572Z,936.41
2017-07-22T02:50:38.708Z,936.44
2017-07-22T02:51:06.942Z,936.46
2017-07-22T02:51:35.150Z,936.45
2017-07-22T02:52:03.288Z,936.44
2017-07-22T02:52:31.509Z,936.41
2017-07-22T02:52:59.626Z,936.44
2017-07-22T02:53:27.861Z,936.44
2017-07-22T02:53:56.124Z,936.42
2017-07-22T02:54:24.256Z,936.41
2017-07-22T02:54:52.351Z,936.41
2017-07-22T02:55:20.363Z,936.44
2017-07-22T02:55:48.575Z,936.39
2017-07-22T02:56:16.754Z,936.4
2017-07-22T02:56:44.990Z,936.44
2017-07-22T02:57:13.106Z,936.41
2017-07-22T02:57:41.252Z,936.41
2017-07-22T02:58:09.409Z,936.4
2017-07-22T02:58:37.621Z,936.43
2017-07-22T02:59:05.791Z,936.39
2017-07-22T02:59:33.967Z,936.42
2017-07-22T03:00:02.099Z,936.41
2017-07-22T03:00:30.130Z,936.42
2017-07-22T03:00:58.260Z,936.45
2017-07-22T03:01:26.383Z,936.42
2017-07-22T03:01:54.693Z,936.45
2017-07-22T03:02:22.947Z,936.44
2017-07-22T03:02:51.086Z,936.46
2017-07-22T03:03:19.129Z,936.44
2017-07-22T03:03:47.143Z,936.46
2017-07-22T03:04:15.355Z,936.47
2017-07-22T03:04:43.463Z,936.45
2017-07-22T03:05:11.687Z,936.44
2017-07-22T03:05:39.811Z,936.43
2017-07-22T03:06:07.909Z,936.42
2017-07-22T03:06:36.037Z,936.46
2017-07-22T03:07:04.185Z,936.39
2017-07-22T03:07:32.357Z,936.43
2017-07-22T03:08:00.453Z,936.45
2017-07-22T03:08:28.479Z,936.43
2017-07-22T03:08:56.680Z,936.43
2017-07-22T03:09:24.815Z,936.43
2017-07-22T03:09:52.928Z,936.45
2017-07-22T03:10:21.120Z,936.43
2017-07-22T03:10:49.391Z,936.42
2017-07-22T03:11:17.507Z,936.44
2017-07-22T03:11:45.771Z,936.44
2017-07-22T03:12:13.968Z,936.45
2017-07-22T03:12:42.130Z,936.4
2017-07-22T03:13:10.350Z,936.41
2017-07-22T03:13:38.422Z,936.39
2017-07-22T03:14:06.618Z,936.41
2017-07-22T03:14:34.734Z,936.43
2017-07-22T03:15:02.698Z,936.41
2017-07-22T03:15:30.807Z,936.39
2017-07-22T03:15:58.992Z,936.43
2017-07-22T03:16:27.178Z,936.37
2017-07-22T03:16:55.369Z,936.42
2017-07-22T03:17:23.590Z,936.41
2017-07-22T03:17:51.840Z,936.4
2017-07-22T03:18:20.096Z,936.42
2017-07-22T03:18:48.266Z,936.39
2017-07-22T03:19:16.380Z,936.41
2017-07-22T03:19:44.489Z,936.39
2017-07-22T03:20:12.541Z,936.41
2017-07-22T03:20:40.575Z,936.41
2017-07-22T03:21:08.689Z,936.38
2017-07-22T03:21:36.954Z,936.41
2017-07-22T03:22:05.099Z,936.4
2017-07-22T03:22:33.334Z,936.4
2017-07-22T03:23:01.573Z,936.33
2017-07-22T03:23:29.705Z,936.38
2017-07-22T03:23:57.916Z,936.37
2017-07-22T03:24:26.130Z,936.4
2017-07-22T03:24:54.338Z,936.38
2017-07-22T03:25:22.779Z,936.37
2017-07-22T03:25:50.886Z,936.31
2017-07-22T03:26:18.998Z,936.36
2017-07-22T03:26:47.187Z,936.34
2017-07-22T03:27:15.409Z,936.32
2017-07-22T03:27:43.480Z,936.34
2017-07-22T03:28:11.704Z,936.32
2017-07-22T03:28:39.939Z,936.34
2017-07-22T03:29:08.073Z,936.36
2017-07-22T03:29:36.067Z,936.34
2017-07-22T03:30:04.175Z,936.34
2017-07-22T03:30:32.217Z,936.31
2017-07-22T03:31:00.422Z,936.29
2017-07-22T03:31:28.638Z,936.31
2017-07-22T03:31:56.796Z,936.29
2017-07-22T03:32:25.039Z,936.29
2017-07-22T03:32:53.142Z,936.31
2017-07-22T03:33:21.275Z,936.28
2017-07-22T03:33:49.401Z,936.25
2017-07-22T03:34:17.607Z,936.28
2017-07-22T03:34:45.814Z,936.27
2017-07-22T03:35:13.976Z,936.26
2017-07-22T03:35:42.086Z,936.25
2017-07-22T03:36:10.186Z,936.26
2017-07-22T03:36:38.361Z,936.23
2017-07-22T03:37:06.655Z,936.23
2017-07-22T03:37:34.891Z,936.28
2017-07-22T03:38:03.132Z,936.23
2017-07-22T03:38:31.335Z,936.26
2017-07-22T03:38:59.392Z,936.27
2017-07-22T03:39:27.455Z,936.23
2017-07-22T03:39:55.696Z,936.23
2017-07-22T03:40:23.787Z,936.19
2017-07-22T03:40:51.854Z,936.2
2017-07-22T03:42:04.299Z,936.21
2017-07-22T03:42:32.585Z,936.23
2017-07-22T03:43:00.457Z,936.22
2017-07-22T03:43:28.616Z,936.18
2017-07-22T03:43:56.630Z,936.18
2017-07-22T03:44:24.597Z,936.18
2017-07-22T03:44:52.840Z,936.19
2017-07-22T03:45:20.891Z,936.19
2017-07-22T03:45:49.193Z,936.19
2017-07-22T03:46:17.775Z,936.23
2017-07-22T03:46:45.841Z,936.19
2017-07-22T03:47:14.105Z,936.17
2017-07-22T03:47:42.052Z,936.17
2017-07-22T03:48:10.239Z,936.22
2017-07-22T03:48:38.363Z,936.22
2017-07-22T03:49:06.280Z,936.21
2017-07-22T03:49:34.320Z,936.22
2017-07-22T03:50:02.300Z,936.19
2017-07-22T03:50:30.339Z,936.19
2017-07-22T03:50:58.346Z,936.2
2017-07-22T03:51:26.478Z,936.17
2017-07-22T03:51:54.536Z,936.18
2017-07-22T03:52:22.758Z,936.18
2017-07-22T03:52:50.883Z,936.19
2017-07-22T03:53:18.993Z,936.12
2017-07-22T03:53:47.042Z,936.11
2017-07-22T03:54:15.235Z,936.08
2017-07-22T03:54:43.228Z,936.09
2017-07-22T03:55:11.219Z,936.08
2017-07-22T03:55:39.351Z,936.08
2017-07-22T03:56:07.441Z,936.08
2017-07-22T03:56:35.654Z,936.08
2017-07-22T03:57:03.914Z,936.11
2017-07-22T03:57:32.039Z,936.08
2017-07-22T03:58:00.227Z,936.1
2017-07-22T03:58:28.193Z,936.11
2017-07-22T03:58:56.367Z,936.14
2017-07-22T03:59:24.533Z,936.16
2017-07-22T03:59:52.598Z,936.15
2017-07-22T04:00:20.801Z,936.14
2017-07-22T04:00:48.950Z,936.13
2017-07-22T04:01:17.150Z,936.16
2017-07-22T04:01:45.214Z,936.16
2017-07-22T04:02:13.230Z,936.15
2017-07-22T04:02:41.422Z,936.15
2017-07-22T04:03:09.567Z,936.14
2017-07-22T04:03:38.133Z,936.15
2017-07-22T04:04:06.304Z,936.12
2017-07-22T04:04:34.464Z,936.14
2017-07-22T04:05:02.425Z,936.15
2017-07-22T04:05:30.535Z,936.1
2017-07-22T04:05:58.527Z,936.08
2017-07-22T04:06:26.618Z,936.1
2017-07-22T04:06:54.828Z,936.12
2017-07-22T04:07:23.004Z,936.13
2017-07-22T04:07:51.281Z,936.15
2017-07-22T04:08:19.434Z,936.12
2017-07-22T04:08:47.545Z,936.08
2017-07-22T04:09:15.699Z,936.12
2017-07-22T04:09:43.793Z,936.12
2017-07-22T04:10:11.908Z,936.09
2017-07-22T04:10:40.086Z,936.1
2017-07-22T04:11:08.156Z,936.1
2017-07-22T04:11:36.245Z,936.1
2017-07-22T04:12:04.439Z,936.1
2017-07-22T04:12:32.700Z,936.07
2017-07-22T04:13:00.875Z,936.1
2017-07-22T04:13:29.081Z,936.13
2017-07-22T04:13:57.074Z,936.1
2017-07-22T04:14:25.756Z,936.11
2017-07-22T04:14:53.941Z,936.09
2017-07-22T04:15:22.037Z,936.09
2017-07-22T04:15:50.508Z,936.07
2017-07-22T04:16:18.731Z,936.07
2017-07-22T04:16:46.841Z,936.07
2017-07-22T04:17:15.025Z,936.03
2017-07-22T04:17:43.086Z,936.08
2017-07-22T04:18:10.885Z,936.08
2017-07-22T04:18:39.087Z,936.06
2017-07-22T04:19:06.941Z,936.07
2017-07-22T04:19:34.998Z,936
2017-07-22T04:20:03.166Z,935.99
2017-07-22T04:20:31.331Z,935.99
2017-07-22T04:20:59.307Z,935.97
2017-07-22T04:21:27.427Z,935.99
2017-07-22T04:21:55.480Z,935.97
2017-07-22T04:22:23.482Z,935.96
2017-07-22T04:22:51.629Z,935.94
2017-07-22T04:23:19.767Z,935.92
2017-07-22T04:23:47.906Z,935.93
2017-07-22T04:24:16.056Z,935.94
2017-07-22T04:24:44.219Z,935.95
2017-07-22T04:25:12.407Z,935.97
2017-07-22T04:25:40.636Z,935.97
2017-07-22T04:26:08.655Z,936.01
2017-07-22T04:26:36.809Z,935.99
2017-07-22T04:27:04.792Z,935.96
2017-07-22T04:27:33.021Z,935.98
2017-07-22T04:28:01.085Z,935.98
2017-07-22T04:28:29.077Z,935.95
2017-07-22T04:28:57.256Z,935.97
2017-07-22T04:29:25.519Z,935.95
2017-07-22T04:29:53.643Z,935.93
2017-07-22T04:30:21.702Z,935.96
2017-07-22T04:30:49.887Z,935.97
2017-07-22T04:31:18.148Z,935.96
2017-07-22T04:33:31.321Z,935.93
2017-07-22T04:33:59.400Z,935.87
2017-07-22T04:34:27.490Z,935.85
2017-07-22T04:34:55.679Z,935.86
2017-07-22T04:35:23.822Z,935.88
2017-07-22T04:35:51.982Z,935.85
2017-07-22T04:36:20.006Z,935.87
2017-07-22T04:36:48.071Z,935.87
2017-07-22T04:37:16.214Z,935.82
2017-07-22T04:37:44.388Z,935.84
2017-07-22T04:38:12.716Z,935.8
2017-07-22T04:38:40.861Z,935.77
2017-07-22T04:39:08.965Z,935.77
2017-07-22T04:39:37.146Z,935.75
2017-07-22T04:40:05.172Z,935.76
2017-07-22T04:40:33.316Z,935.77
2017-07-22T04:41:01.438Z,935.79
2017-07-22T04:41:29.664Z,935.74
2017-07-22T04:41:57.848Z,935.74
2017-07-22T04:42:26.023Z,935.77
2017-07-22T04:42:54.088Z,935.79
2017-07-22T04:43:22.332Z,935.82
2017-07-22T04:43:50.441Z,935.8
2017-07-22T04:44:18.479Z,935.79
2017-07-22T04:44:46.521Z,935.75
2017-07-22T04:45:14.698Z,935.75
2017-07-22T04:45:42.906Z,935.76
2017-07-22T04:46:11.129Z,935.75
2017-07-22T04:46:39.271Z,935.75
2017-07-22T04:47:07.344Z,935.76
2017-07-22T04:47:35.452Z,935.76
2017-07-22T04:48:03.662Z,935.76
2017-07-22T04:48:31.981Z,935.77
2017-07-22T04:49:00.083Z,935.75
2017-07-22T04:49:28.300Z,935.72
2017-07-22T04:49:56.399Z,935.74
2017-07-22T04:50:24.626Z,935.79
2017-07-22T04:50:52.686Z,935.77
2017-07-22T04:51:20.682Z,935.76
2017-07-22T04:51:48.803Z,935.77
2017-07-22T04:52:17.036Z,935.75
2017-07-22T04:52:45.246Z,935.76
2017-07-22T04:53:13.499Z,935.74
2017-07-22T04:53:41.601Z,935.75
2017-07-22T04:54:09.745Z,935.75
2017-07-22T04:54:37.959Z,935.77
2017-07-22T04:55:06.116Z,935.77
2017-07-22T04:55:34.213Z,935.76
2017-07-22T04:56:02.606Z,935.75
2017-07-22T04:56:30.844Z,935.74
2017-07-22T04:56:58.958Z,935.75
2017-07-22T04:57:27.336Z,935.74
2017-07-22T04:57:55.521Z,935.74
2017-07-22T04:58:23.890Z,935.72
2017-07-22T04:58:52.057Z,935.71
2017-07-22T04:59:20.179Z,935.72
2017-07-22T04:59:48.407Z,935.75
2017-07-22T05:00:16.525Z,935.72
2017-07-22T05:00:44.651Z,935.74
2017-07-22T05:01:12.944Z,935.7
2017-07-22T05:01:41.031Z,935.74
2017-07-22T05:02:09.300Z,935.72
2017-07-22T05:02:37.524Z,935.73
2017-07-22T05:03:05.779Z,935.72
2017-07-22T05:03:33.896Z,935.69
2017-07-22T05:04:01.925Z,935.7
2017-07-22T05:04:30.031Z,935.67
2017-07-22T05:04:58.120Z,935.7
2017-07-22T05:05:26.227Z,935.68
2017-07-22T05:05:54.452Z,935.68
2017-07-22T05:06:22.616Z,935.68
2017-07-22T05:06:50.783Z,935.69
2017-07-22T05:07:19.026Z,935.7
2017-07-22T05:07:47.245Z,935.69
2017-07-22T05:08:15.397Z,935.7
2017-07-22T05:08:43.651Z,935.68
2017-07-22T05:09:11.734Z,935.68
2017-07-22T05:09:39.959Z,935.69
2017-07-22T05:10:07.968Z,935.69
2017-07-22T05:10:35.802Z,935.68
2017-07-22T05:11:04.044Z,935.65
2017-07-22T05:11:32.191Z,935.68
2017-07-22T05:12:00.399Z,935.66
2017-07-22T05:12:28.661Z,935.66
2017-07-22T05:12:56.809Z,935.64
2017-07-22T05:13:24.929Z,935.64
2017-07-22T05:13:53.265Z,935.62
2017-07-22T05:14:21.504Z,935.58
2017-07-22T05:14:49.553Z,935.59
2017-07-22T05:15:17.814Z,935.59
2017-07-22T05:15:46.043Z,935.59
2017-07-22T05:16:14.028Z,935.62
2017-07-22T05:16:42.237Z,935.57
2017-07-22T05:17:10.487Z,935.59
2017-07-22T05:17:38.477Z,935.57
2017-07-22T05:18:06.569Z,935.56
2017-07-22T05:18:34.863Z,935.56
2017-07-22T05:19:03.097Z,935.56
2017-07-22T05:19:31.232Z,935.58
2017-07-22T05:19:59.406Z,935.55
2017-07-22T05:20:27.553Z,935.57
2017-07-22T05:20:55.614Z,935.54
2017-07-22T05:21:23.756Z,935.55
2017-07-22T05:21:51.873Z,935.52
2017-07-22T05:22:20.003Z,935.56
2017-07-22T05:22:48.210Z,935.54
2017-07-22T05:23:16.413Z,935.53
2017-07-22T05:23:44.611Z,935.55
2017-07-22T05:24:12.834Z,935.54
2017-07-22T05:24:40.916Z,935.52
2017-07-22T05:25:09.142Z,935.53
2017-07-22T05:25:37.269Z,935.53
2017-07-22T05:26:05.385Z,935.53
2017-07-22T05:26:33.585Z,935.5
2017-07-22T05:27:01.694Z,935.52
2017-07-22T05:27:29.721Z,935.51
2017-07-22T05:27:57.894Z,935.51
2017-07-22T05:28:25.895Z,935.47
2017-07-22T05:28:54.033Z,935.48
2017-07-22T05:29:22.138Z,935.5
2017-07-22T05:29:50.405Z,935.49
2017-07-22T05:30:18.590Z,935.48
2017-07-22T05:30:46.819Z,935.49
2017-07-22T05:31:14.931Z,935.47
2017-07-22T05:31:42.943Z,935.48
2017-07-22T05:32:11.067Z,935.46
2017-07-22T05:32:39.268Z,935.48
2017-07-22T05:33:07.367Z,935.49
2017-07-22T05:33:35.465Z,935.45
2017-07-22T05:34:03.523Z,935.45
2017-07-22T05:34:31.646Z,935.46
2017-07-22T05:34:59.766Z,935.44
2017-07-22T05:35:27.932Z,935.43
2017-07-22T05:35:56.173Z,935.45
2017-07-22T05:36:24.357Z,935.46
2017-07-22T05:36:52.393Z,935.48
2017-07-22T05:37:20.557Z,935.47
2017-07-22T05:37:48.671Z,935.46
2017-07-22T05:38:16.801Z,935.49
2017-07-22T05:38:44.935Z,935.47
2017-07-22T05:39:13.140Z,935.48
2017-07-22T05:39:41.157Z,935.48
2017-07-22T05:40:09.178Z,935.49
2017-07-22T05:40:37.436Z,935.47
2017-07-22T05:41:05.608Z,935.5
2017-07-22T05:41:33.854Z,935.49
2017-07-22T05:42:02.083Z,935.46
2017-07-22T05:42:30.280Z,935.43
2017-07-22T05:42:58.369Z,935.48
2017-07-22T05:43:26.488Z,935.47
2017-07-22T05:43:54.773Z,935.45
2017-07-22T05:44:22.878Z,935.44
2017-07-22T05:44:51.013Z,935.49
2017-07-22T05:45:19.142Z,935.5
2017-07-22T05:45:47.173Z,935.49
2017-07-22T05:46:15.199Z,935.49
2017-07-22T05:46:43.446Z,935.5
2017-07-22T05:47:11.610Z,935.48
2017-07-22T05:47:39.840Z,935.47
2017-07-22T05:48:07.883Z,935.46
2017-07-22T05:48:36.118Z,935.48
2017-07-22T05:49:04.383Z,935.46
2017-07-22T05:49:32.510Z,935.44
2017-07-22T05:50:00.593Z,935.45
2017-07-22T05:50:28.721Z,935.41
2017-07-22T05:50:56.888Z,935.42
2017-07-22T05:51:25.066Z,935.42
2017-07-22T05:51:53.182Z,935.41
2017-07-22T05:52:21.338Z,935.42
2017-07-22T05:52:49.529Z,935.42
2017-07-22T05:53:17.788Z,935.41
2017-07-22T05:53:46.017Z,935.41
2017-07-22T05:54:14.340Z,935.41
2017-07-22T05:54:42.598Z,935.39